Time;durP1;ratioP1;P1;durP2;ratioP2;P2;SDS_P1;SDS_P2;PMS_P1;PMS_P2;Temp;Humidity;BMP_temperature;BMP_pressure;BME280_temperature;BME280_humidity;BME280_pressure;Samples;Min_cycle;Max_cycle;Signal;HPM_P1;HPM_P2
2022/03/03 00:02:25;;;;;;;;;;;5.30;46.90;;;;;;5016677;28;19964;-56
2022/03/03 00:04:51;;;;;;;;;;;5.30;47.00;;;;;;5016537;28;19972;-56
2022/03/03 00:07:16;;;;;;;;;;;5.40;45.00;;;;;;5016296;28;20004;-56
2022/03/03 00:09:42;;;;;;;;;;;5.50;44.70;;;;;;5016582;28;19909;-56
2022/03/03 00:12:08;;;;;;;;;;;5.40;45.60;;;;;;5015569;28;19957;-55
2022/03/03 00:14:34;;;;;;;;;;;5.50;44.40;;;;;;5016126;28;20015;-56
2022/03/03 00:16:59;;;;;;;;;;;5.50;44.70;;;;;;5016030;28;19909;-56
2022/03/03 00:19:25;;;;;;;;;;;5.40;45.10;;;;;;5016126;28;19917;-56
2022/03/03 00:21:50;;;;;;;;;;;5.50;44.20;;;;;;5016152;28;19932;-56
2022/03/03 00:24:16;;;;;;;;;;;5.40;44.80;;;;;;5016072;28;19920;-54
2022/03/03 00:26:42;;;;;;;;;;;5.30;45.20;;;;;;5015925;28;20015;-56
2022/03/03 00:29:07;;;;;;;;;;;5.40;43.40;;;;;;5015966;28;19913;-55
2022/03/03 00:31:33;;;;;;;;;;;5.40;43.10;;;;;;5015724;28;20333;-55
2022/03/03 00:33:58;;;;;;;;;;;5.50;42.40;;;;;;5015657;28;19913;-54
2022/03/03 00:36:24;;;;;;;;;;;5.50;41.70;;;;;;5015495;28;20012;-55
2022/03/03 00:38:50;;;;;;;;;;;5.50;41.90;;;;;;5016165;28;19917;-55
2022/03/03 00:41:16;;;;;;;;;;;5.60;41.30;;;;;;5015791;28;19913;-56
2022/03/03 00:43:42;;;;;;;;;;;5.50;41.90;;;;;;5015602;28;19964;-55
2022/03/03 00:46:08;;;;;;;;;;;5.40;43.20;;;;;;5015643;28;19910;-56
2022/03/03 00:48:33;;;;;;;;;;;5.40;42.50;;;;;;5015544;28;19953;-56
2022/03/03 00:51:00;;;;;;;;;;;5.50;42.50;;;;;;5015346;28;19981;-54
2022/03/03 00:53:25;;;;;;;;;;;5.50;42.70;;;;;;5015489;28;20436;-54
2022/03/03 00:55:51;;;;;;;;;;;5.30;43.30;;;;;;5015451;28;19917;-55
2022/03/03 00:58:17;;;;;;;;;;;5.30;44.30;;;;;;5015711;28;19917;-56
2022/03/03 01:00:42;;;;;;;;;;;5.30;44.40;;;;;;5015394;28;20349;-55
2022/03/03 01:03:08;;;;;;;;;;;5.20;44.40;;;;;;5015525;28;19909;-54
2022/03/03 01:05:33;;;;;;;;;;;5.20;44.50;;;;;;5015301;28;19920;-54
2022/03/03 01:07:59;;;;;;;;;;;5.10;44.30;;;;;;5015159;28;19952;-55
2022/03/03 01:10:24;;;;;;;;;;;5.10;44.40;;;;;;5015004;28;19910;-56
2022/03/03 01:12:50;;;;;;;;;;;5.10;44.70;;;;;;5015000;28;19914;-56
2022/03/03 01:15:15;;;;;;;;;;;5.20;44.40;;;;;;5014891;28;19975;-55
2022/03/03 01:17:41;;;;;;;;;;;5.20;44.80;;;;;;5014758;28;20357;-55
2022/03/03 01:20:07;;;;;;;;;;;5.10;44.70;;;;;;5014792;28;20246;-56
2022/03/03 01:22:33;;;;;;;;;;;5.10;45.10;;;;;;5014768;28;19920;-56
2022/03/03 01:24:59;;;;;;;;;;;5.00;45.00;;;;;;5014076;28;19910;-55
2022/03/03 01:27:25;;;;;;;;;;;4.90;46.00;;;;;;5014720;28;20000;-54
2022/03/03 01:29:50;;;;;;;;;;;4.90;46.40;;;;;;5014940;28;19917;-56
2022/03/03 01:32:16;;;;;;;;;;;4.90;45.50;;;;;;5014527;28;19916;-55
2022/03/03 01:34:42;;;;;;;;;;;5.20;44.00;;;;;;5014405;28;19924;-57
2022/03/03 01:37:07;;;;;;;;;;;5.10;42.90;;;;;;5014571;28;20366;-56
2022/03/03 01:39:33;;;;;;;;;;;5.20;42.90;;;;;;5014530;28;19913;-56
2022/03/03 01:41:59;;;;;;;;;;;5.10;44.20;;;;;;5014613;28;19953;-55
2022/03/03 01:44:25;;;;;;;;;;;5.00;44.70;;;;;;5014361;28;19910;-55
2022/03/03 01:46:58;;;;;;;;;;;4.90;44.80;;;;;;5014282;28;19910;-54
2022/03/03 01:49:24;;;;;;;;;;;4.90;44.60;;;;;;5014318;28;19916;-54
2022/03/03 01:51:50;;;;;;;;;;;5.10;43.50;;;;;;5014606;28;19910;-56
2022/03/03 01:54:16;;;;;;;;;;;5.30;42.40;;;;;;5014094;28;20377;-56
2022/03/03 01:56:42;;;;;;;;;;;5.40;41.30;;;;;;5014259;28;19913;-55
2022/03/03 01:59:08;;;;;;;;;;;5.40;41.90;;;;;;5014360;28;19910;-56
2022/03/03 02:01:34;;;;;;;;;;;5.20;42.50;;;;;;5014550;28;20281;-55
2022/03/03 02:03:59;;;;;;;;;;;5.20;43.50;;;;;;5014131;28;19979;-54
2022/03/03 02:06:25;;;;;;;;;;;5.10;44.70;;;;;;5014015;28;19932;-55
2022/03/03 02:08:53;;;;;;;;;;;4.90;46.30;;;;;;5013985;28;19921;-55
2022/03/03 02:11:20;;;;;;;;;;;4.70;47.00;;;;;;5014229;28;19981;-55
2022/03/03 02:13:45;;;;;;;;;;;4.60;46.50;;;;;;5013832;28;20290;-55
2022/03/03 02:16:11;;;;;;;;;;;4.70;45.70;;;;;;5014078;28;19921;-55
2022/03/03 02:18:40;;;;;;;;;;;4.80;45.20;;;;;;5013932;28;19932;-55
2022/03/03 02:21:09;;;;;;;;;;;4.80;45.10;;;;;;5013781;28;19921;-55
2022/03/03 02:23:34;;;;;;;;;;;4.80;45.20;;;;;;5013966;28;20365;-55
2022/03/03 02:26:00;;;;;;;;;;;5.00;44.00;;;;;;5013828;28;19909;-55
2022/03/03 02:28:26;;;;;;;;;;;5.00;44.30;;;;;;5014012;28;19913;-55
2022/03/03 02:30:51;;;;;;;;;;;4.90;44.10;;;;;;5014093;28;19910;-55
2022/03/03 02:33:17;;;;;;;;;;;4.80;43.80;;;;;;5014136;28;20372;-55
2022/03/03 02:35:42;;;;;;;;;;;4.90;43.30;;;;;;5013771;28;19973;-56
2022/03/03 02:38:08;;;;;;;;;;;5.10;42.70;;;;;;5013846;28;20313;-53
2022/03/03 02:40:33;;;;;;;;;;;5.10;42.40;;;;;;5013664;28;20289;-55
2022/03/03 02:42:59;;;;;;;;;;;5.00;42.80;;;;;;5013500;28;19916;-56
2022/03/03 02:45:25;;;;;;;;;;;4.90;43.30;;;;;;5013797;28;19916;-55
2022/03/03 02:47:51;;;;;;;;;;;4.80;44.40;;;;;;5013919;28;19909;-55
2022/03/03 02:50:17;;;;;;;;;;;4.70;44.50;;;;;;5013519;28;20338;-54
2022/03/03 02:52:43;;;;;;;;;;;4.70;43.50;;;;;;5013832;28;20353;-54
2022/03/03 02:55:09;;;;;;;;;;;4.70;43.30;;;;;;5013671;28;19925;-55
2022/03/03 03:00:18;;;;;;;;;;;4.90;41.80;;;;;;5013607;28;19924;-56
2022/03/03 03:02:44;;;;;;;;;;;5.10;40.80;;;;;;5013829;28;19909;-55
2022/03/03 03:05:10;;;;;;;;;;;5.30;40.10;;;;;;5013736;28;19909;-56
2022/03/03 03:07:36;;;;;;;;;;;5.40;39.90;;;;;;5013449;28;19916;-56
2022/03/03 03:10:02;;;;;;;;;;;5.40;39.40;;;;;;5013387;28;19916;-55
2022/03/03 03:12:28;;;;;;;;;;;5.30;39.50;;;;;;5013493;28;19914;-55
2022/03/03 03:14:54;;;;;;;;;;;5.40;39.60;;;;;;5013560;28;19925;-55
2022/03/03 03:17:19;;;;;;;;;;;5.30;39.90;;;;;;5013295;28;19914;-56
2022/03/03 03:19:45;;;;;;;;;;;5.20;39.50;;;;;;5013423;28;19913;-54
2022/03/03 03:22:11;;;;;;;;;;;5.20;39.00;;;;;;5013473;28;20833;-55
2022/03/03 03:24:36;;;;;;;;;;;5.10;39.40;;;;;;5013187;28;19921;-55
2022/03/03 03:27:02;;;;;;;;;;;5.10;40.50;;;;;;5013494;28;20376;-55
2022/03/03 03:29:27;;;;;;;;;;;4.90;41.10;;;;;;4995740;28;19909;-55
2022/03/03 03:31:53;;;;;;;;;;;4.70;41.30;;;;;;5013330;28;19961;-54
2022/03/03 03:34:18;;;;;;;;;;;4.70;41.70;;;;;;5013348;28;19920;-54
2022/03/03 03:36:44;;;;;;;;;;;4.50;42.30;;;;;;5013403;28;19909;-56
2022/03/03 03:39:10;;;;;;;;;;;4.50;43.40;;;;;;5013343;28;20353;-54
2022/03/03 03:41:35;;;;;;;;;;;4.90;42.60;;;;;;5013162;28;19914;-56
2022/03/03 03:44:01;;;;;;;;;;;5.10;42.80;;;;;;5012992;28;20012;-56
2022/03/03 03:46:26;;;;;;;;;;;5.10;42.10;;;;;;5013501;28;19956;-54
2022/03/03 03:48:52;;;;;;;;;;;5.10;42.80;;;;;;5016772;28;20000;-56
2022/03/03 03:51:17;;;;;;;;;;;5.20;41.90;;;;;;5016601;28;19950;-56
2022/03/03 03:53:43;;;;;;;;;;;5.20;42.60;;;;;;5016320;28;19922;-54
2022/03/03 03:56:08;;;;;;;;;;;5.00;43.00;;;;;;5016284;28;19914;-55
2022/03/03 03:58:34;;;;;;;;;;;4.80;44.00;;;;;;5016725;28;19947;-55
2022/03/03 04:01:00;;;;;;;;;;;4.80;44.50;;;;;;5016468;28;19980;-54
2022/03/03 04:03:25;;;;;;;;;;;4.60;45.20;;;;;;5016563;28;19945;-55
2022/03/03 04:05:51;;;;;;;;;;;4.60;45.00;;;;;;5016576;28;19910;-55
2022/03/03 04:08:18;;;;;;;;;;;4.60;45.00;;;;;;5016224;28;20369;-54
2022/03/03 04:10:44;;;;;;;;;;;4.60;44.80;;;;;;5016069;28;19921;-56
2022/03/03 04:13:10;;;;;;;;;;;4.70;44.60;;;;;;5016352;28;20251;-56
2022/03/03 04:15:36;;;;;;;;;;;4.50;45.00;;;;;;5015939;28;19944;-54
2022/03/03 04:18:02;;;;;;;;;;;4.30;46.80;;;;;;5015884;28;19917;-56
2022/03/03 04:20:27;;;;;;;;;;;4.20;47.60;;;;;;5015909;28;19992;-56
2022/03/03 04:22:53;;;;;;;;;;;4.40;46.30;;;;;;5015898;28;20273;-55
2022/03/03 04:25:19;;;;;;;;;;;4.50;44.50;;;;;;5015753;28;19914;-54
2022/03/03 04:27:45;;;;;;;;;;;4.70;44.30;;;;;;5015970;28;20321;-55
2022/03/03 04:30:11;;;;;;;;;;;4.80;43.60;;;;;;5016104;28;19931;-55
2022/03/03 04:32:37;;;;;;;;;;;4.80;43.80;;;;;;5015999;28;19967;-54
2022/03/03 04:35:03;;;;;;;;;;;4.80;45.00;;;;;;5015799;28;20286;-55
2022/03/03 04:37:29;;;;;;;;;;;4.80;44.40;;;;;;5015895;28;19914;-56
2022/03/03 04:39:54;;;;;;;;;;;4.70;44.80;;;;;;5015865;28;19941;-55
2022/03/03 04:42:20;;;;;;;;;;;4.60;45.60;;;;;;5016039;28;19917;-56
2022/03/03 04:44:46;;;;;;;;;;;4.40;46.70;;;;;;5015651;28;20377;-60
2022/03/03 04:47:11;;;;;;;;;;;4.20;47.40;;;;;;5015749;28;19909;-57
2022/03/03 04:49:37;;;;;;;;;;;4.10;47.90;;;;;;5015711;28;19909;-57
2022/03/03 04:52:03;;;;;;;;;;;4.00;48.40;;;;;;5015669;28;20384;-55
2022/03/03 04:54:28;;;;;;;;;;;4.00;49.10;;;;;;5015597;28;19987;-54
2022/03/03 04:56:55;;;;;;;;;;;4.20;47.20;;;;;;5015219;28;19916;-56
2022/03/03 04:59:23;;;;;;;;;;;4.30;46.10;;;;;;5015291;28;19914;-56
2022/03/03 05:01:49;;;;;;;;;;;4.50;45.90;;;;;;5015405;28;19914;-55
2022/03/03 05:04:14;;;;;;;;;;;4.50;45.90;;;;;;5015332;28;19916;-55
2022/03/03 05:06:40;;;;;;;;;;;4.20;48.10;;;;;;5015182;28;20313;-56
2022/03/03 05:09:06;;;;;;;;;;;4.00;49.60;;;;;;5015158;28;19942;-56
2022/03/03 05:11:31;;;;;;;;;;;3.90;49.20;;;;;;5015489;28;19916;-56
2022/03/03 05:13:57;;;;;;;;;;;3.70;50.00;;;;;;5015099;28;19914;-56
2022/03/03 05:16:22;;;;;;;;;;;3.90;49.10;;;;;;5015193;28;19917;-54
2022/03/03 05:18:48;;;;;;;;;;;4.00;48.00;;;;;;5014983;28;19929;-54
2022/03/03 05:21:13;;;;;;;;;;;4.20;46.80;;;;;;5015227;28;19935;-54
2022/03/03 05:23:39;;;;;;;;;;;4.20;47.30;;;;;;5014833;28;20354;-56
2022/03/03 05:26:04;;;;;;;;;;;4.10;47.60;;;;;;5014857;28;19909;-54
2022/03/03 05:28:30;;;;;;;;;;;4.10;48.40;;;;;;5014935;28;20027;-56
2022/03/03 05:30:56;;;;;;;;;;;4.00;47.90;;;;;;5014834;28;19913;-54
2022/03/03 05:33:21;;;;;;;;;;;4.00;49.00;;;;;;5014834;28;19914;-54
2022/03/03 05:35:48;;;;;;;;;;;4.00;48.20;;;;;;5014557;28;19917;-54
2022/03/03 05:38:13;;;;;;;;;;;3.90;48.90;;;;;;5014432;28;19971;-54
2022/03/03 05:40:39;;;;;;;;;;;4.00;48.00;;;;;;5014791;28;19913;-55
2022/03/03 05:43:04;;;;;;;;;;;4.00;46.30;;;;;;5014789;28;19909;-54
2022/03/03 05:45:32;;;;;;;;;;;4.00;47.90;;;;;;5014683;28;20294;-55
2022/03/03 05:47:58;;;;;;;;;;;3.90;48.20;;;;;;5014755;28;19949;-54
2022/03/03 05:50:23;;;;;;;;;;;4.00;48.00;;;;;;5014389;28;20380;-55
2022/03/03 05:52:49;;;;;;;;;;;4.00;47.70;;;;;;5014245;28;19917;-54
2022/03/03 05:55:14;;;;;;;;;;;3.90;48.40;;;;;;5014309;28;20494;-54
2022/03/03 05:57:44;;;;;;;;;;;3.90;48.00;;;;;;4996816;28;19909;-55
2022/03/03 06:00:15;;;;;;;;;;;3.90;48.20;;;;;;5014253;28;19910;-55
2022/03/03 06:02:53;;;;;;;;;;;3.80;49.60;;;;;;5014078;28;19963;-55
2022/03/03 06:05:20;;;;;;;;;;;3.70;49.90;;;;;;5014015;28;20362;-55
2022/03/03 06:07:50;;;;;;;;;;;3.70;50.70;;;;;;5014059;28;20010;-54
2022/03/03 06:10:20;;;;;;;;;;;3.60;50.50;;;;;;5013721;28;19910;-56
2022/03/03 06:12:54;;;;;;;;;;;3.50;51.30;;;;;;5014148;28;19910;-56
2022/03/03 06:15:22;;;;;;;;;;;3.50;50.90;;;;;;5014008;28;19961;-56
2022/03/03 06:17:49;;;;;;;;;;;3.50;50.50;;;;;;5013953;28;19917;-56
2022/03/03 06:20:15;;;;;;;;;;;3.60;50.70;;;;;;5014157;28;19914;-56
2022/03/03 06:22:41;;;;;;;;;;;3.60;50.70;;;;;;5014129;28;19964;-55
2022/03/03 06:25:07;;;;;;;;;;;3.70;51.00;;;;;;5014073;28;19917;-54
2022/03/03 06:27:33;;;;;;;;;;;3.80;50.40;;;;;;5013934;28;19910;-54
2022/03/03 06:29:58;;;;;;;;;;;4.00;50.40;;;;;;5014067;28;19972;-54
2022/03/03 06:32:24;;;;;;;;;;;3.90;50.70;;;;;;5014092;28;19910;-55
2022/03/03 06:34:49;;;;;;;;;;;3.90;49.70;;;;;;5013725;28;19930;-55
2022/03/03 06:37:15;;;;;;;;;;;4.00;49.10;;;;;;5013894;28;19909;-54
2022/03/03 06:39:41;;;;;;;;;;;4.20;47.30;;;;;;5014054;28;19964;-54
2022/03/03 06:42:07;;;;;;;;;;;4.40;46.80;;;;;;5014010;28;19921;-56
2022/03/03 06:44:33;;;;;;;;;;;4.60;45.70;;;;;;5013758;28;19909;-56
2022/03/03 06:46:59;;;;;;;;;;;4.60;45.80;;;;;;5013577;28;19910;-57
2022/03/03 06:49:24;;;;;;;;;;;4.50;46.90;;;;;;5014011;28;20380;-53
2022/03/03 06:51:54;;;;;;;;;;;4.40;51.50;;;;;;5013999;28;19916;-56
2022/03/03 06:54:21;;;;;;;;;;;4.50;49.90;;;;;;5013566;28;19913;-54
2022/03/03 06:56:48;;;;;;;;;;;4.50;49.40;;;;;;5013542;28;19914;-54
2022/03/03 06:59:14;;;;;;;;;;;4.40;50.00;;;;;;5013640;28;20381;-54
2022/03/03 07:01:40;;;;;;;;;;;4.50;49.60;;;;;;5013285;28;20304;-54
2022/03/03 07:04:07;;;;;;;;;;;4.70;49.00;;;;;;5013636;28;19913;-58
2022/03/03 07:06:33;;;;;;;;;;;5.30;58.70;;;;;;5013376;28;19985;-57
2022/03/03 07:08:59;;;;;;;;;;;5.90;54.40;;;;;;5013643;28;19909;-56
2022/03/03 07:11:24;;;;;;;;;;;6.50;50.50;;;;;;5013437;28;19910;-55
2022/03/03 07:13:50;;;;;;;;;;;6.80;46.60;;;;;;5013373;28;20273;-55
2022/03/03 07:16:22;;;;;;;;;;;7.10;45.40;;;;;;5013175;28;20084;-56
2022/03/03 07:18:49;;;;;;;;;;;7.40;45.10;;;;;;5012467;28;19925;-55
2022/03/03 07:21:29;;;;;;;;;;;7.70;45.20;;;;;;5013182;28;19936;-55
2022/03/03 07:24:10;;;;;;;;;;;8.00;44.80;;;;;;5017357;28;19917;-56
2022/03/03 07:26:37;;;;;;;;;;;8.10;44.70;;;;;;5016849;28;20281;-55
2022/03/03 07:29:04;;;;;;;;;;;8.40;44.20;;;;;;5016956;28;19913;-55
2022/03/03 07:31:31;;;;;;;;;;;8.60;44.10;;;;;;5016921;28;19918;-55
2022/03/03 07:33:59;;;;;;;;;;;8.70;43.40;;;;;;5017032;28;19921;-56
2022/03/03 07:36:27;;;;;;;;;;;8.80;43.30;;;;;;5016946;28;19913;-56
2022/03/03 07:38:53;;;;;;;;;;;8.90;41.90;;;;;;5016967;28;20281;-57
2022/03/03 07:41:19;;;;;;;;;;;9.00;42.00;;;;;;5016945;28;20008;-57
2022/03/03 07:43:44;;;;;;;;;;;9.10;43.20;;;;;;5017081;28;19916;-57
2022/03/03 07:46:10;;;;;;;;;;;9.20;43.70;;;;;;5016848;28;19909;-57
2022/03/03 07:48:36;;;;;;;;;;;9.40;41.60;;;;;;5016815;28;19949;-58
2022/03/03 07:51:02;;;;;;;;;;;9.50;39.10;;;;;;5017015;28;20379;-58
2022/03/03 07:53:28;;;;;;;;;;;9.40;36.90;;;;;;5016581;28;20307;-58
2022/03/03 07:55:55;;;;;;;;;;;9.40;36.50;;;;;;5016421;28;19929;-57
2022/03/03 07:58:26;;;;;;;;;;;9.60;36.10;;;;;;4998989;28;19910;-61
2022/03/03 08:00:53;;;;;;;;;;;9.80;35.60;;;;;;5016394;28;19952;-59
2022/03/03 08:03:22;;;;;;;;;;;10.00;35.50;;;;;;5016517;28;19909;-58
2022/03/03 08:05:49;;;;;;;;;;;10.20;35.10;;;;;;5016261;28;19910;-57
2022/03/03 08:08:15;;;;;;;;;;;10.40;33.90;;;;;;5016361;28;20029;-60
2022/03/03 08:10:42;;;;;;;;;;;10.50;33.10;;;;;;5016518;28;19916;-57
2022/03/03 08:13:10;;;;;;;;;;;10.30;33.50;;;;;;5016628;28;19910;-63
2022/03/03 08:15:38;;;;;;;;;;;9.90;32.50;;;;;;5015984;28;20362;-58
2022/03/03 08:18:04;;;;;;;;;;;9.90;32.90;;;;;;5015849;28;19929;-58
2022/03/03 08:20:30;;;;;;;;;;;10.00;33.40;;;;;;5016151;28;19909;-58
2022/03/03 08:22:58;;;;;;;;;;;10.30;33.30;;;;;;5015798;28;20408;-58
2022/03/03 08:25:24;;;;;;;;;;;10.60;33.30;;;;;;5016349;28;19941;-60
2022/03/03 08:27:50;;;;;;;;;;;10.70;32.80;;;;;;4998416;28;19909;-58
2022/03/03 08:30:16;;;;;;;;;;;10.80;33.20;;;;;;5016218;28;20002;-63
2022/03/03 08:32:48;;;;;;;;;;;10.90;32.70;;;;;;5015340;28;20014;-58
2022/03/03 08:35:16;;;;;;;;;;;10.90;31.30;;;;;;5015635;28;19917;-58
2022/03/03 08:37:43;;;;;;;;;;;10.70;30.40;;;;;;5020853;28;19913;-58
2022/03/03 08:40:11;;;;;;;;;;;11.00;31.10;;;;;;5023492;28;20383;-58
2022/03/03 08:42:37;;;;;;;;;;;11.20;31.10;;;;;;5025538;28;20328;-60
2022/03/03 08:45:04;;;;;;;;;;;11.30;31.10;;;;;;5023051;28;19936;-62
2022/03/03 08:47:30;;;;;;;;;;;10.70;30.60;;;;;;5015249;28;20359;-55
2022/03/03 08:49:58;;;;;;;;;;;10.60;31.20;;;;;;5024114;28;19917;-56
2022/03/03 08:52:23;;;;;;;;;;;10.40;31.60;;;;;;5024509;28;19916;-59
2022/03/03 08:54:49;;;;;;;;;;;10.70;32.70;;;;;;5014828;28;19917;-58
2022/03/03 08:57:15;;;;;;;;;;;11.10;33.90;;;;;;5024026;28;19910;-55
2022/03/03 08:59:40;;;;;;;;;;;11.20;32.20;;;;;;5031966;28;19935;-56
2022/03/03 09:02:06;;;;;;;;;;;10.90;31.10;;;;;;5035171;28;19960;-56
2022/03/03 09:04:31;;;;;;;;;;;11.00;32.50;;;;;;5034936;28;19909;-56
2022/03/03 09:06:57;;;;;;;;;;;11.20;32.40;;;;;;5034873;28;19963;-56
2022/03/03 09:09:22;;;;;;;;;;;11.40;31.30;;;;;;5034774;28;19916;-55
2022/03/03 09:11:48;;;;;;;;;;;11.40;30.50;;;;;;5034195;28;19909;-55
2022/03/03 09:14:14;;;;;;;;;;;11.40;31.10;;;;;;5033653;28;19917;-55
2022/03/03 09:16:39;;;;;;;;;;;11.50;32.10;;;;;;5021181;28;19975;-57
2022/03/03 09:19:07;;;;;;;;;;;11.60;33.00;;;;;;5014648;28;19984;-57
2022/03/03 09:21:32;;;;;;;;;;;11.40;32.60;;;;;;5014915;28;19916;-56
2022/03/03 09:23:58;;;;;;;;;;;11.00;33.30;;;;;;5015061;28;19909;-56
2022/03/03 09:26:24;;;;;;;;;;;10.50;34.20;;;;;;5014955;28;19916;-56
2022/03/03 09:28:49;;;;;;;;;;;10.20;35.00;;;;;;5014561;28;19924;-56
2022/03/03 09:31:15;;;;;;;;;;;10.30;35.70;;;;;;5014944;28;19988;-56
2022/03/03 09:33:40;;;;;;;;;;;10.60;35.10;;;;;;5014668;28;19910;-55
2022/03/03 09:36:06;;;;;;;;;;;10.60;34.30;;;;;;5013836;28;19925;-56
2022/03/03 09:38:32;;;;;;;;;;;10.60;34.60;;;;;;5013696;28;20411;-57
2022/03/03 09:40:58;;;;;;;;;;;10.70;35.10;;;;;;5014417;28;19960;-57
2022/03/03 09:43:25;;;;;;;;;;;10.80;33.80;;;;;;5014833;28;19909;-56
2022/03/03 09:45:51;;;;;;;;;;;10.90;33.70;;;;;;5013608;28;19964;-56
2022/03/03 09:48:16;;;;;;;;;;;10.80;35.50;;;;;;5014375;28;19914;-56
2022/03/03 09:50:42;;;;;;;;;;;11.00;35.40;;;;;;5014675;28;19915;-56
2022/03/03 09:53:09;;;;;;;;;;;10.80;35.20;;;;;;5014420;28;19932;-57
2022/03/03 09:55:35;;;;;;;;;;;10.70;35.60;;;;;;5014222;28;19917;-57
2022/03/03 09:58:01;;;;;;;;;;;10.70;35.60;;;;;;5014460;28;20273;-57
2022/03/03 10:00:29;;;;;;;;;;;10.70;36.30;;;;;;5014264;28;19914;-57
2022/03/03 10:03:09;;;;;;;;;;;10.70;36.70;;;;;;5013992;28;20020;-56
2022/03/03 10:05:35;;;;;;;;;;;10.70;36.50;;;;;;5014351;28;19921;-57
2022/03/03 10:08:08;;;;;;;;;;;10.90;37.00;;;;;;5014298;28;19916;-56
2022/03/03 10:10:35;;;;;;;;;;;10.90;38.50;;;;;;5014254;28;19999;-56
2022/03/03 10:13:00;;;;;;;;;;;10.90;38.20;;;;;;5013693;28;19956;-55
2022/03/03 10:15:27;;;;;;;;;;;10.90;38.60;;;;;;5013845;28;19925;-56
2022/03/03 10:18:00;;;;;;;;;;;10.90;39.40;;;;;;5014024;28;19921;-56
2022/03/03 10:20:26;;;;;;;;;;;11.00;39.70;;;;;;5013864;28;19910;-56
2022/03/03 10:22:57;;;;;;;;;;;11.00;40.10;;;;;;5013905;28;19913;-56
2022/03/03 10:25:27;;;;;;;;;;;11.10;40.10;;;;;;5013705;28;19909;-56
2022/03/03 10:27:53;;;;;;;;;;;11.30;39.80;;;;;;5014040;28;20277;-56
2022/03/03 10:30:18;;;;;;;;;;;11.30;39.90;;;;;;5013857;28;19905;-56
2022/03/03 10:32:44;;;;;;;;;;;10.80;39.20;;;;;;5014183;28;20012;-57
2022/03/03 10:35:13;;;;;;;;;;;10.60;40.50;;;;;;5013914;28;19922;-56
2022/03/03 10:37:38;;;;;;;;;;;11.00;40.10;;;;;;5013956;28;19932;-58
2022/03/03 10:40:08;;;;;;;;;;;11.30;38.40;;;;;;4996316;28;20420;-56
2022/03/03 10:42:37;;;;;;;;;;;11.00;38.70;;;;;;5013849;28;19910;-57
2022/03/03 10:45:07;;;;;;;;;;;10.80;39.10;;;;;;5013918;28;19909;-57
2022/03/03 10:47:32;;;;;;;;;;;10.70;39.40;;;;;;5013286;28;19951;-57
2022/03/03 10:49:59;;;;;;;;;;;11.00;39.20;;;;;;5013475;28;20263;-58
2022/03/03 10:52:26;;;;;;;;;;;10.80;38.70;;;;;;5013513;28;19909;-59
2022/03/03 10:54:59;;;;;;;;;;;10.60;38.90;;;;;;5013455;28;19917;-55
2022/03/03 10:57:34;;;;;;;;;;;10.80;39.40;;;;;;5017282;28;19909;-57
2022/03/03 11:00:01;;;;;;;;;;;11.10;38.70;;;;;;5017595;28;20346;-57
2022/03/03 11:02:27;;;;;;;;;;;11.30;37.10;;;;;;5018145;28;19996;-56
2022/03/03 11:04:53;;;;;;;;;;;11.30;37.70;;;;;;5017700;28;19913;-56
2022/03/03 11:07:20;;;;;;;;;;;11.10;37.30;;;;;;5017517;28;19910;-58
2022/03/03 11:09:46;;;;;;;;;;;10.90;38.70;;;;;;5017487;28;19910;-56
2022/03/03 11:12:13;;;;;;;;;;;10.70;39.40;;;;;;5017521;28;20016;-56
2022/03/03 11:14:39;;;;;;;;;;;11.00;39.10;;;;;;5017218;28;20445;-56
2022/03/03 11:17:05;;;;;;;;;;;11.40;38.40;;;;;;5017434;28;19968;-58
2022/03/03 11:19:31;;;;;;;;;;;11.40;37.40;;;;;;5017042;28;19948;-55
2022/03/03 11:21:56;;;;;;;;;;;11.50;37.00;;;;;;5017033;28;19953;-55
2022/03/03 11:24:22;;;;;;;;;;;11.40;37.10;;;;;;5020894;28;19913;-58
2022/03/03 11:26:48;;;;;;;;;;;11.70;36.80;;;;;;5021284;28;20008;-58
2022/03/03 11:29:15;;;;;;;;;;;12.00;35.90;;;;;;5025929;28;20473;-57
2022/03/03 11:31:42;;;;;;;;;;;11.80;34.80;;;;;;5024694;28;19921;-60
2022/03/03 11:34:30;;;;;;;;;;;12.00;35.20;;;;;;5016262;28;20281;-59
2022/03/03 11:37:03;;;;;;;;;;;12.20;34.60;;;;;;5024503;28;19914;-60
2022/03/03 11:39:40;;;;;;;;;;;12.00;32.00;;;;;;5025264;28;19916;-65
2022/03/03 11:42:25;;;;;;;;;;;11.70;32.00;;;;;;5033446;28;19947;-59
2022/03/03 11:44:55;;;;;;;;;;;11.60;32.60;;;;;;5036565;28;20392;-59
2022/03/03 11:47:28;;;;;;;;;;;11.40;33.50;;;;;;5036597;28;19913;-59
2022/03/03 11:49:58;;;;;;;;;;;11.20;33.50;;;;;;5036637;28;20376;-58
2022/03/03 11:52:23;;;;;;;;;;;11.20;35.50;;;;;;5021672;28;19910;-60
2022/03/03 11:54:54;;;;;;;;;;;11.20;37.40;;;;;;5016285;28;19972;-58
2022/03/03 11:57:23;;;;;;;;;;;11.10;38.70;;;;;;5016465;28;19916;-57
2022/03/03 11:59:49;;;;;;;;;;;11.40;38.40;;;;;;5016543;28;19909;-57
2022/03/03 12:02:18;;;;;;;;;;;11.10;38.30;;;;;;5001159;28;19914;-57
2022/03/03 12:04:44;;;;;;;;;;;11.00;38.80;;;;;;5009781;28;20374;-56
2022/03/03 12:07:26;;;;;;;;;;;11.30;39.20;;;;;;5012999;28;20019;-56
2022/03/03 12:09:51;;;;;;;;;;;11.30;37.90;;;;;;5016290;28;20321;-58
2022/03/03 12:12:19;;;;;;;;;;;11.40;35.70;;;;;;5015581;28;19925;-58
2022/03/03 12:14:48;;;;;;;;;;;11.60;36.70;;;;;;5015673;28;19921;-62
2022/03/03 12:17:32;;;;;;;;;;;11.60;37.00;;;;;;5016033;28;19909;-58
2022/03/03 12:20:17;;;;;;;;;;;11.70;37.20;;;;;;5016188;28;20004;-60
2022/03/03 12:23:02;;;;;;;;;;;11.80;36.20;;;;;;5015840;28;19910;-59
2022/03/03 12:26:00;;;;;;;;;;;11.50;36.30;;;;;;5015847;28;19914;-58
2022/03/03 12:28:45;;;;;;;;;;;11.10;37.20;;;;;;4982839;28;19913;-58
2022/03/03 12:31:21;;;;;;;;;;;11.30;38.00;;;;;;5015845;28;19909;-60
2022/03/03 12:34:05;;;;;;;;;;;11.40;36.60;;;;;;4998044;28;20289;-58
2022/03/03 12:36:31;;;;;;;;;;;11.50;36.50;;;;;;5015336;28;20336;-58
2022/03/03 12:38:57;;;;;;;;;;;11.40;37.90;;;;;;5015444;28;19963;-59
2022/03/03 12:41:24;;;;;;;;;;;11.80;37.70;;;;;;5015274;28;19909;-61
2022/03/03 12:43:50;;;;;;;;;;;12.00;36.50;;;;;;5015633;28;19917;-61
2022/03/03 12:46:16;;;;;;;;;;;11.90;36.70;;;;;;5015060;28;19913;-58
2022/03/03 12:48:45;;;;;;;;;;;12.20;37.10;;;;;;5015086;28;20273;-58
2022/03/03 12:51:11;;;;;;;;;;;12.30;37.20;;;;;;5015075;28;19919;-57
2022/03/03 12:53:43;;;;;;;;;;;12.40;37.60;;;;;;5017185;28;20365;-59
2022/03/03 12:56:10;;;;;;;;;;;12.50;36.70;;;;;;5014318;28;19957;-59
2022/03/03 12:58:36;;;;;;;;;;;12.10;37.60;;;;;;5014434;28;19916;-63
2022/03/03 13:01:02;;;;;;;;;;;12.00;39.30;;;;;;5015798;28;19910;-58
2022/03/03 13:03:32;;;;;;;;;;;12.00;38.60;;;;;;5018368;28;19910;-60
2022/03/03 13:05:58;;;;;;;;;;;12.20;38.60;;;;;;5014731;28;19964;-63
2022/03/03 13:08:28;;;;;;;;;;;12.20;38.60;;;;;;5014862;28;19909;-59
2022/03/03 13:10:57;;;;;;;;;;;12.20;39.30;;;;;;5014730;28;19948;-60
2022/03/03 13:13:23;;;;;;;;;;;12.40;38.70;;;;;;5014479;28;19914;-59
2022/03/03 13:15:49;;;;;;;;;;;12.60;37.30;;;;;;5014370;28;19963;-56
2022/03/03 13:18:17;;;;;;;;;;;12.30;37.30;;;;;;5014350;28;19997;-61
2022/03/03 13:20:53;;;;;;;;;;;12.40;38.20;;;;;;5019590;28;19910;-59
2022/03/03 13:23:19;;;;;;;;;;;12.40;38.00;;;;;;5014733;28;20265;-61
2022/03/03 13:25:44;;;;;;;;;;;12.00;38.40;;;;;;5014179;28;19917;-59
2022/03/03 13:28:21;;;;;;;;;;;12.10;39.20;;;;;;5013987;28;19992;-56
2022/03/03 13:30:50;;;;;;;;;;;12.20;38.00;;;;;;5013770;28;19967;-57
2022/03/03 13:33:16;;;;;;;;;;;12.30;37.10;;;;;;5019184;28;19917;-58
2022/03/03 13:35:42;;;;;;;;;;;12.50;36.70;;;;;;5013530;28;19918;-58
2022/03/03 13:38:08;;;;;;;;;;;12.20;36.90;;;;;;5013676;28;20391;-58
2022/03/03 13:40:34;;;;;;;;;;;11.90;38.20;;;;;;5013796;28;19913;-58
2022/03/03 13:43:00;;;;;;;;;;;11.70;38.70;;;;;;5011091;28;19917;-58
2022/03/03 13:45:27;;;;;;;;;;;11.60;38.70;;;;;;5013740;28;19957;-58
2022/03/03 13:48:03;;;;;;;;;;;11.50;39.10;;;;;;5014124;28;19957;-59
2022/03/03 13:50:28;;;;;;;;;;;11.30;39.40;;;;;;5013461;28;19913;-57
2022/03/03 13:52:54;;;;;;;;;;;11.10;40.60;;;;;;5013531;28;19920;-56
2022/03/03 13:55:20;;;;;;;;;;;11.00;41.40;;;;;;5013457;28;19917;-57
2022/03/03 13:57:46;;;;;;;;;;;11.10;40.30;;;;;;5013747;28;20004;-59
2022/03/03 14:00:28;;;;;;;;;;;11.30;40.20;;;;;;5019412;28;20001;-55
2022/03/03 14:03:00;;;;;;;;;;;11.40;38.50;;;;;;5020105;28;19964;-55
2022/03/03 14:05:36;;;;;;;;;;;11.20;37.50;;;;;;5022379;28;19917;-55
2022/03/03 14:08:04;;;;;;;;;;;11.30;38.60;;;;;;5022521;28;19948;-60
2022/03/03 14:11:05;;;;;;;;;;;11.30;38.40;;;;;;5034016;28;20419;-54
2022/03/03 14:13:49;;;;;;;;;;;11.20;37.00;;;;;;4953573;29;19926;-56
2022/03/03 14:16:20;;;;;;;;;;;10.90;37.50;;;;;;5027011;28;19923;-58
2022/03/03 14:18:46;;;;;;;;;;;10.90;37.80;;;;;;5033545;28;20003;-57
2022/03/03 14:21:11;;;;;;;;;;;11.30;41.90;;;;;;5033551;28;20321;-56
2022/03/03 14:23:38;;;;;;;;;;;11.50;38.20;;;;;;5033368;28;20205;-54
2022/03/03 14:26:04;;;;;;;;;;;11.60;37.60;;;;;;5033446;28;19909;-56
2022/03/03 14:28:30;;;;;;;;;;;11.50;36.90;;;;;;5033699;28;19909;-56